Time;durP1;ratioP1;P1;durP2;ratioP2;P2;SDS_P1;SDS_P2;PMS_P1;PMS_P2;Temp;Humidity;BMP_temperature;BMP_pressure;BME280_temperature;BME280_humidity;BME280_pressure;Samples;Min_cycle;Max_cycle;Signal;HPM_P1;HPM_P2
2021/08/23 00:00:39;;;;;;;13.02;11.85;;;14.90;88.20;;;;;;4932566;29;20059;-74
2021/08/23 00:03:11;;;;;;;13.57;12.57;;;14.90;88.60;;;;;;4933156;29;20126;-74
2021/08/23 00:05:43;;;;;;;13.30;12.30;;;14.90;88.20;;;;;;4931985;29;20135;-74
2021/08/23 00:08:17;;;;;;;12.73;11.82;;;14.80;88.00;;;;;;4936444;29;20478;-74
2021/08/23 00:10:48;;;;;;;12.57;11.57;;;14.80;88.30;;;;;;4932527;29;20083;-74
2021/08/23 00:13:20;;;;;;;13.38;12.38;;;14.80;88.20;;;;;;4932349;29;20131;-74
2021/08/23 00:15:55;;;;;;;13.07;12.02;;;14.80;88.20;;;;;;4938736;29;20122;-74
2021/08/23 00:18:27;;;;;;;12.43;11.52;;;14.80;88.30;;;;;;4933895;29;20059;-73
2021/08/23 00:21:02;;;;;;;12.70;11.80;;;14.80;88.50;;;;;;4932110;29;20061;-74
2021/08/23 00:23:37;;;;;;;12.68;11.70;;;14.70;88.50;;;;;;4932452;29;20118;-75
2021/08/23 00:26:25;;;;;;;12.23;11.32;;;14.70;88.20;;;;;;4931668;29;20594;-74
2021/08/23 00:28:57;;;;;;;12.73;11.82;;;14.70;88.20;;;;;;4921201;29;20055;-73
2021/08/23 00:31:29;;;;;;;12.45;11.48;;;14.70;88.30;;;;;;4935365;29;20051;-74
2021/08/23 00:34:01;;;;;;;12.90;11.95;;;14.70;88.20;;;;;;4936351;29;20056;-73
2021/08/23 00:36:32;;;;;;;12.27;11.27;;;14.70;88.00;;;;;;4935589;29;21131;-73
2021/08/23 00:39:09;;;;;;;12.75;11.85;;;14.80;88.20;;;;;;4937292;29;20075;-73
2021/08/23 00:41:41;;;;;;;12.05;11.15;;;14.80;88.10;;;;;;4934889;29;20431;-73
2021/08/23 00:44:13;;;;;;;12.85;11.75;;;14.80;88.00;;;;;;4936993;29;20453;-73
2021/08/23 00:46:45;;;;;;;12.23;11.23;;;14.70;88.30;;;;;;4935583;29;20059;-73
2021/08/23 00:49:20;;;;;;;12.32;11.38;;;14.70;88.20;;;;;;4936350;29;20058;-72
2021/08/23 00:51:53;;;;;;;12.85;11.85;;;14.70;88.30;;;;;;4935880;29;20138;-73
2021/08/23 00:54:25;;;;;;;13.10;12.00;;;14.70;88.30;;;;;;4936706;29;20173;-73
2021/08/23 00:56:57;;;;;;;12.15;11.25;;;14.70;88.30;;;;;;4934677;29;20474;-76
2021/08/23 00:59:31;;;;;;;12.50;11.60;;;14.70;88.40;;;;;;4936401;29;20587;-75
2021/08/23 01:02:22;;;;;;;12.35;11.45;;;14.60;88.40;;;;;;4936610;29;20117;-75
2021/08/23 01:05:01;;;;;;;12.50;11.57;;;14.60;88.70;;;;;;4935856;29;20051;-74
2021/08/23 01:07:43;;;;;;;12.18;11.27;;;14.60;88.90;;;;;;4935161;29;20142;-75
2021/08/23 01:10:19;;;;;;;13.00;12.00;;;14.60;88.60;;;;;;4935616;29;20070;-75
2021/08/23 01:12:53;;;;;;;12.85;11.85;;;14.70;88.50;;;;;;4937128;29;20699;-73
2021/08/23 01:15:25;;;;;;;12.80;11.90;;;14.70;88.30;;;;;;4933316;29;20058;-74
2021/08/23 01:17:57;;;;;;;13.13;12.13;;;14.70;88.10;;;;;;4935679;29;20134;-75
2021/08/23 01:20:34;;;;;;;13.00;12.00;;;14.70;88.00;;;;;;4932231;29;20060;-75
2021/08/23 01:23:09;;;;;;;12.23;11.32;;;14.70;88.00;;;;;;4937164;29;20634;-73
2021/08/23 01:25:43;;;;;;;12.30;11.40;;;14.70;88.00;;;;;;4934759;29;20617;-73
2021/08/23 01:28:21;;;;;;;12.27;11.27;;;14.70;88.00;;;;;;4936794;29;20137;-73
2021/08/23 01:31:22;;;;;;;12.07;11.05;;;14.70;87.90;;;;;;4937663;29;20051;-73
2021/08/23 01:33:54;;;;;;;12.40;11.50;;;14.70;88.20;;;;;;4936383;29;20058;-73
2021/08/23 01:36:27;;;;;;;12.50;11.60;;;14.70;88.00;;;;;;4933726;29;20059;-73
2021/08/23 01:39:00;;;;;;;12.35;11.45;;;14.70;87.80;;;;;;4934603;29;20126;-73
2021/08/23 01:41:32;;;;;;;11.93;10.93;;;14.80;87.90;;;;;;4937302;29;20096;-73
2021/08/23 01:44:05;;;;;;;12.05;11.15;;;14.80;88.00;;;;;;4935364;29;20050;-73
2021/08/23 01:46:37;;;;;;;12.05;11.15;;;14.70;87.80;;;;;;4933844;29;20725;-73
2021/08/23 01:49:10;;;;;;;12.77;11.50;;;14.70;87.80;;;;;;4933510;29;20058;-73
2021/08/23 01:51:41;;;;;;;12.50;11.57;;;14.80;87.70;;;;;;4935502;29;20060;-72
2021/08/23 01:54:13;;;;;;;12.23;11.32;;;14.80;87.70;;;;;;4936548;29;20063;-72
2021/08/23 01:56:45;;;;;;;12.07;11.18;;;14.80;87.70;;;;;;4932647;29;20166;-73
2021/08/23 01:59:17;;;;;;;12.35;11.32;;;14.80;88.40;;;;;;4933808;29;20128;-73
2021/08/23 02:01:49;;;;;;;11.95;11.05;;;14.70;88.60;;;;;;4933770;29;20055;-72
2021/08/23 02:04:21;;;;;;;12.40;11.50;;;14.70;88.90;;;;;;4934146;29;20100;-70
2021/08/23 02:06:53;;;;;;;12.10;11.20;;;14.60;88.30;;;;;;4934177;29;20142;-71
2021/08/23 02:09:25;;;;;;;12.15;11.25;;;14.50;88.40;;;;;;4935962;29;20126;-71
2021/08/23 02:11:56;;;;;;;12.98;11.98;;;14.50;88.70;;;;;;4935637;29;20086;-72
2021/08/23 02:14:28;;;;;;;12.68;11.50;;;14.50;88.50;;;;;;4938651;29;20062;-71
2021/08/23 02:17:00;;;;;;;12.90;11.82;;;14.50;88.50;;;;;;4929670;29;20113;-71
2021/08/23 02:19:33;;;;;;;12.18;11.25;;;14.50;89.10;;;;;;4934768;29;20131;-72
2021/08/23 02:22:05;;;;;;;12.48;11.50;;;14.50;88.70;;;;;;4931002;29;20127;-72
2021/08/23 02:24:36;;;;;;;12.23;11.23;;;14.50;88.60;;;;;;4936078;29;20130;-73
2021/08/23 02:27:09;;;;;;;12.10;11.20;;;14.50;88.50;;;;;;4947223;29;20051;-71
2021/08/23 02:29:41;;;;;;;12.18;11.10;;;14.40;88.50;;;;;;4934076;29;20050;-73
2021/08/23 02:32:13;;;;;;;12.35;11.40;;;14.40;88.50;;;;;;4932760;29;20047;-73
2021/08/23 02:34:45;;;;;;;12.13;11.23;;;14.30;88.70;;;;;;4940686;29;20131;-73
2021/08/23 02:37:17;;;;;;;12.25;11.35;;;14.30;88.40;;;;;;4932131;29;20147;-74
2021/08/23 02:39:48;;;;;;;12.13;11.23;;;14.30;88.50;;;;;;4935423;29;20047;-73
2021/08/23 02:42:20;;;;;;;12.50;11.40;;;14.30;88.40;;;;;;4934298;29;20052;-73
2021/08/23 02:44:52;;;;;;;13.00;12.00;;;14.20;88.10;;;;;;4935018;29;20178;-73
2021/08/23 02:47:24;;;;;;;12.70;11.68;;;14.20;88.40;;;;;;4930568;29;20057;-73
2021/08/23 02:49:58;;;;;;;12.55;11.65;;;14.30;88.20;;;;;;4941310;29;20158;-73
2021/08/23 02:52:29;;;;;;;12.30;11.40;;;14.30;88.30;;;;;;4933270;29;20530;-73
2021/08/23 02:55:03;;;;;;;12.57;11.63;;;14.30;88.00;;;;;;4934994;29;20506;-73
2021/08/23 02:57:35;;;;;;;12.82;11.82;;;14.30;87.90;;;;;;4935298;29;20053;-73
2021/08/23 03:00:08;;;;;;;12.55;11.60;;;14.40;88.10;;;;;;4932700;29;20392;-73
2021/08/23 03:02:40;;;;;;;12.52;11.52;;;14.30;87.90;;;;;;4932819;29;20051;-73
2021/08/23 03:05:12;;;;;;;12.85;11.80;;;14.30;88.50;;;;;;4934224;29;20070;-73
2021/08/23 03:07:44;;;;;;;13.20;12.10;;;14.30;88.30;;;;;;4932274;29;20128;-73
2021/08/23 03:10:16;;;;;;;13.27;12.27;;;14.20;88.50;;;;;;4931458;29;20062;-74
2021/08/23 03:12:48;;;;;;;12.93;11.93;;;14.20;88.80;;;;;;4932660;29;20048;-74
2021/08/23 03:15:21;;;;;;;12.82;11.82;;;14.10;89.10;;;;;;4933474;29;20091;-72
2021/08/23 03:17:53;;;;;;;12.95;11.85;;;14.10;89.10;;;;;;4932020;29;20142;-73
2021/08/23 03:20:25;;;;;;;12.88;11.90;;;14.10;89.20;;;;;;4933253;29;20110;-74
2021/08/23 03:22:57;;;;;;;12.70;11.70;;;14.10;89.50;;;;;;4931995;29;20112;-73
2021/08/23 03:25:29;;;;;;;13.07;12.07;;;14.10;89.40;;;;;;4934511;29;20071;-72
2021/08/23 03:28:01;;;;;;;12.85;11.88;;;14.10;89.30;;;;;;4933427;29;20577;-74
2021/08/23 03:30:33;;;;;;;12.75;11.75;;;14.10;89.10;;;;;;4922022;29;20052;-75
2021/08/23 03:33:05;;;;;;;13.13;12.02;;;14.10;89.10;;;;;;4935246;29;20056;-74
2021/08/23 03:35:38;;;;;;;12.48;11.57;;;14.00;89.10;;;;;;4931544;29;20056;-73
2021/08/23 03:38:11;;;;;;;12.45;11.52;;;14.00;89.00;;;;;;4940591;29;20113;-73
2021/08/23 03:40:44;;;;;;;12.98;11.98;;;14.00;88.70;;;;;;4934159;29;20071;-74
2021/08/23 03:43:16;;;;;;;12.98;11.98;;;13.90;88.90;;;;;;4933508;29;20052;-73
2021/08/23 03:45:48;;;;;;;12.85;11.75;;;13.90;89.10;;;;;;4931255;29;20138;-73
2021/08/23 03:48:21;;;;;;;13.20;12.10;;;13.90;89.10;;;;;;4933858;29;20434;-73
2021/08/23 03:50:52;;;;;;;13.05;11.93;;;13.80;88.90;;;;;;4932873;29;20854;-74
2021/08/23 03:53:24;;;;;;;12.82;11.82;;;13.80;88.80;;;;;;4933052;29;20171;-74
2021/08/23 03:55:56;;;;;;;12.55;11.55;;;13.70;89.20;;;;;;4931985;29;20074;-74
2021/08/23 03:58:28;;;;;;;13.00;12.00;;;13.70;89.20;;;;;;4932506;29;20057;-73
2021/08/23 04:01:00;;;;;;;13.48;12.43;;;13.70;89.40;;;;;;4931928;29;20052;-74
2021/08/23 04:03:37;;;;;;;13.35;12.35;;;13.70;89.60;;;;;;4936581;29;20039;-73
2021/08/23 04:06:11;;;;;;;13.45;12.35;;;13.70;89.30;;;;;;4935828;29;20108;-73
2021/08/23 04:08:44;;;;;;;12.60;11.70;;;13.70;89.70;;;;;;4938342;29;20641;-73
2021/08/23 04:11:16;;;;;;;12.80;11.80;;;13.60;89.20;;;;;;4937720;29;20071;-73
2021/08/23 04:13:48;;;;;;;13.00;11.90;;;13.60;89.30;;;;;;4937195;29;20092;-74
2021/08/23 04:16:20;;;;;;;13.13;12.13;;;13.60;89.30;;;;;;4936929;29;20157;-74
2021/08/23 04:18:52;;;;;;;13.57;12.48;;;13.60;89.40;;;;;;4935753;29;20142;-73
2021/08/23 04:21:24;;;;;;;13.70;12.57;;;13.70;88.60;;;;;;4935049;29;20047;-73
2021/08/23 04:23:56;;;;;;;14.15;13.05;;;13.70;88.90;;;;;;4937562;29;20135;-74
2021/08/23 04:26:28;;;;;;;12.93;11.93;;;13.70;88.70;;;;;;4936163;29;20121;-74
2021/08/23 04:29:00;;;;;;;13.27;12.23;;;13.70;88.60;;;;;;4938612;29;20075;-73
2021/08/23 04:31:31;;;;;;;13.80;12.70;;;13.70;88.60;;;;;;4938484;29;20043;-74
2021/08/23 04:34:07;;;;;;;13.88;12.88;;;13.70;88.70;;;;;;4937135;29;20594;-75
2021/08/23 04:36:40;;;;;;;13.60;12.55;;;13.70;88.90;;;;;;4935855;29;20146;-74
2021/08/23 04:39:12;;;;;;;12.63;11.73;;;13.70;88.70;;;;;;4947417;29;20670;-73
2021/08/23 04:41:44;;;;;;;12.95;11.85;;;13.60;88.80;;;;;;4936518;29;20083;-74
2021/08/23 04:44:15;;;;;;;12.52;11.52;;;13.60;88.80;;;;;;4934608;29;20083;-73
2021/08/23 04:46:49;;;;;;;12.23;11.32;;;13.50;89.10;;;;;;4934246;29;20062;-73
2021/08/23 04:49:21;;;;;;;12.40;11.40;;;13.60;89.30;;;;;;4936169;29;20047;-73
2021/08/23 04:51:53;;;;;;;12.45;11.55;;;13.60;89.80;;;;;;4935319;29;20073;-73
2021/08/23 04:54:25;;;;;;;13.00;11.95;;;13.50;89.60;;;;;;4935560;29;20127;-74
2021/08/23 04:56:57;;;;;;;12.93;11.82;;;13.50;89.60;;;;;;4936188;29;20056;-73
2021/08/23 04:59:29;;;;;;;12.00;11.10;;;13.50;89.30;;;;;;4932915;29;20050;-72
2021/08/23 05:02:01;;;;;;;12.32;11.43;;;13.60;89.50;;;;;;4933059;29;20079;-72
2021/08/23 05:04:33;;;;;;;12.35;11.45;;;13.50;90.10;;;;;;4934067;29;20052;-74
2021/08/23 05:07:05;;;;;;;11.48;10.57;;;13.50;89.50;;;;;;4933278;29;20142;-71
2021/08/23 05:09:36;;;;;;;12.02;10.95;;;13.50;89.60;;;;;;4936231;29;20091;-71
2021/08/23 05:12:08;;;;;;;11.85;10.95;;;13.50;89.70;;;;;;4933386;29;20047;-72
2021/08/23 05:14:40;;;;;;;12.30;11.30;;;13.60;89.60;;;;;;4933428;29;20489;-70
2021/08/23 05:17:12;;;;;;;12.20;11.30;;;13.60;89.60;;;;;;4934796;29;20059;-72
2021/08/23 05:19:44;;;;;;;11.90;11.00;;;13.60;89.40;;;;;;4932663;29;20079;-73
2021/08/23 05:22:17;;;;;;;12.65;11.45;;;13.70;89.10;;;;;;4932841;29;20407;-74
2021/08/23 05:24:49;;;;;;;11.88;10.77;;;13.70;88.90;;;;;;4935433;29;20490;-71
2021/08/23 05:27:21;;;;;;;11.93;10.80;;;13.80;89.00;;;;;;4933067;29;20066;-73
2021/08/23 05:29:53;;;;;;;12.98;11.98;;;13.80;89.30;;;;;;4934203;29;20529;-72
2021/08/23 05:32:25;;;;;;;11.80;10.80;;;13.80;89.40;;;;;;4935610;29;20121;-71
2021/08/23 05:34:58;;;;;;;12.85;11.85;;;13.80;89.40;;;;;;4935328;29;20580;-72
2021/08/23 05:37:29;;;;;;;11.70;10.80;;;13.90;89.40;;;;;;4931108;29;20655;-71
2021/08/23 05:40:02;;;;;;;11.88;10.98;;;13.90;89.40;;;;;;4934404;29;20134;-73
2021/08/23 05:42:34;;;;;;;11.85;10.95;;;13.90;89.50;;;;;;4932943;29;20139;-71
2021/08/23 05:45:06;;;;;;;12.65;11.55;;;13.90;89.40;;;;;;4931498;29;20048;-71
2021/08/23 05:47:38;;;;;;;12.43;11.52;;;13.90;89.20;;;;;;4930756;29;20159;-73
2021/08/23 05:50:13;;;;;;;12.43;11.40;;;14.00;89.20;;;;;;4933084;29;20171;-73
2021/08/23 05:52:45;;;;;;;12.05;11.05;;;14.00;89.60;;;;;;4936640;29;20151;-71
2021/08/23 05:55:17;;;;;;;12.30;11.40;;;14.10;90.00;;;;;;4935461;29;20061;-71
2021/08/23 05:57:49;;;;;;;12.45;11.52;;;14.10;89.90;;;;;;4933776;29;20109;-72
2021/08/23 06:00:21;;;;;;;12.18;11.05;;;14.20;89.60;;;;;;4936139;29;20047;-72
2021/08/23 06:02:53;;;;;;;11.80;10.90;;;14.20;89.10;;;;;;4934755;29;20062;-72
2021/08/23 06:05:25;;;;;;;12.20;11.10;;;14.30;89.00;;;;;;4932770;29;20131;-70
2021/08/23 06:07:58;;;;;;;12.45;11.43;;;14.30;88.90;;;;;;4932190;29;20162;-73
2021/08/23 06:10:30;;;;;;;12.48;11.38;;;14.40;88.50;;;;;;4933172;29;20293;-73
2021/08/23 06:13:02;;;;;;;12.38;11.40;;;14.40;89.00;;;;;;4933389;29;20052;-72
2021/08/23 06:15:34;;;;;;;11.68;10.77;;;14.40;88.00;;;;;;4936538;29;20074;-70
2021/08/23 06:18:06;;;;;;;12.57;11.48;;;14.40;87.80;;;;;;4933157;29;20574;-71
2021/08/23 06:20:37;;;;;;;12.23;11.23;;;14.40;88.60;;;;;;4932003;29;20546;-72
2021/08/23 06:23:09;;;;;;;12.05;11.07;;;14.40;88.60;;;;;;4933067;29;20130;-72
2021/08/23 06:25:41;;;;;;;13.02;12.02;;;14.50;88.50;;;;;;4929910;29;20048;-71
2021/08/23 06:28:13;;;;;;;12.30;11.40;;;14.50;88.50;;;;;;4929564;29;20401;-72
2021/08/23 06:30:45;;;;;;;12.57;11.63;;;14.50;88.70;;;;;;4930807;29;20059;-72
2021/08/23 06:33:17;;;;;;;12.75;11.77;;;14.60;88.70;;;;;;4932550;29;20068;-73
2021/08/23 06:35:49;;;;;;;12.40;11.25;;;14.60;88.90;;;;;;4932050;29;20459;-73
2021/08/23 06:38:21;;;;;;;13.23;12.10;;;14.70;88.70;;;;;;4934466;29;20692;-72
2021/08/23 06:40:54;;;;;;;13.63;12.40;;;14.80;88.40;;;;;;4935373;29;20142;-72
2021/08/23 06:43:26;;;;;;;13.30;12.30;;;14.80;88.60;;;;;;4934743;29;20043;-73
2021/08/23 06:45:57;;;;;;;12.40;11.50;;;15.00;88.80;;;;;;4932508;29;20079;-73
2021/08/23 06:48:29;;;;;;;13.35;12.35;;;15.00;88.40;;;;;;4933234;29;20047;-73
2021/08/23 06:51:01;;;;;;;13.00;12.00;;;15.00;88.50;;;;;;4933415;29;20078;-73
2021/08/23 06:53:33;;;;;;;14.13;12.90;;;15.10;88.30;;;;;;4934249;29;20151;-73
2021/08/23 06:56:05;;;;;;;13.20;12.20;;;15.00;87.60;;;;;;4931589;29;20493;-73
2021/08/23 06:58:37;;;;;;;14.48;13.00;;;15.00;87.30;;;;;;4934222;29;20083;-73
2021/08/23 07:01:10;;;;;;;13.40;12.40;;;15.10;88.00;;;;;;4933535;29;20128;-72
2021/08/23 07:03:42;;;;;;;13.70;12.60;;;15.40;87.60;;;;;;4933403;29;20047;-73
2021/08/23 07:06:14;;;;;;;14.23;13.13;;;15.50;87.20;;;;;;4931366;29;20075;-74
2021/08/23 07:08:48;;;;;;;14.32;13.13;;;15.60;87.80;;;;;;4933050;29;20059;-73
2021/08/23 07:11:20;;;;;;;14.23;13.23;;;15.70;86.20;;;;;;4933303;29;20071;-73
2021/08/23 07:13:52;;;;;;;13.90;12.80;;;15.70;86.50;;;;;;4933788;29;20206;-72
2021/08/23 07:16:24;;;;;;;13.80;12.63;;;15.80;86.40;;;;;;4932725;29;20893;-73
2021/08/23 07:18:57;;;;;;;14.65;13.40;;;15.90;86.10;;;;;;4932209;29;20047;-73
2021/08/23 07:21:29;;;;;;;14.70;13.60;;;16.30;85.50;;;;;;4933726;29;20054;-73
2021/08/23 07:24:01;;;;;;;14.45;13.45;;;16.40;84.30;;;;;;4933336;29;20043;-73
2021/08/23 07:26:33;;;;;;;14.60;13.40;;;16.50;84.10;;;;;;4933122;29;20196;-73
2021/08/23 07:29:04;;;;;;;14.10;12.90;;;16.40;84.70;;;;;;4933761;29;20078;-73
2021/08/23 07:31:38;;;;;;;14.68;13.63;;;16.40;84.60;;;;;;4933460;29;20136;-72
2021/08/23 07:34:11;;;;;;;13.88;12.88;;;16.40;85.00;;;;;;4931582;29;20111;-72
2021/08/23 07:36:44;;;;;;;14.20;13.02;;;16.30;84.70;;;;;;4932468;29;20048;-73
2021/08/23 07:39:15;;;;;;;14.80;13.70;;;16.30;84.30;;;;;;4933392;29;20058;-74
2021/08/23 07:41:48;;;;;;;13.25;12.25;;;16.30;84.70;;;;;;4932430;29;20138;-73
2021/08/23 07:44:20;;;;;;;14.40;13.13;;;16.30;84.90;;;;;;4941310;29;20035;-73
2021/08/23 07:46:52;;;;;;;14.02;13.00;;;16.30;84.40;;;;;;4931050;29;20154;-73
2021/08/23 07:49:25;;;;;;;13.60;12.50;;;16.40;84.60;;;;;;4931906;29;20399;-72
2021/08/23 07:51:57;;;;;;;13.32;12.23;;;16.40;84.70;;;;;;4932521;29;20142;-73
2021/08/23 07:54:32;;;;;;;12.85;11.85;;;16.40;84.40;;;;;;4933544;29;20456;-72
2021/08/23 07:57:04;;;;;;;13.20;12.20;;;16.40;83.90;;;;;;4933164;29;20044;-73
2021/08/23 07:59:36;;;;;;;14.00;12.80;;;16.40;84.80;;;;;;4932432;29;20082;-73
2021/08/23 08:02:08;;;;;;;13.18;12.15;;;16.40;84.20;;;;;;4929847;29;20058;-73
2021/08/23 08:04:40;;;;;;;12.75;11.85;;;16.40;85.00;;;;;;4932547;29;20050;-73
2021/08/23 08:07:12;;;;;;;13.65;12.55;;;16.50;85.00;;;;;;4930706;29;20054;-72
2021/08/23 08:09:44;;;;;;;13.88;12.88;;;16.50;84.50;;;;;;4935645;29;20513;-73
2021/08/23 08:12:16;;;;;;;14.07;13.07;;;16.60;83.40;;;;;;4933700;29;20051;-74
2021/08/23 08:14:48;;;;;;;14.13;13.13;;;16.80;83.30;;;;;;4933192;29;20109;-73
2021/08/23 08:17:21;;;;;;;14.60;13.50;;;17.10;81.50;;;;;;4930614;29;20039;-73
2021/08/23 08:19:53;;;;;;;14.45;13.45;;;17.40;81.50;;;;;;4934065;29;20558;-74
2021/08/23 08:22:25;;;;;;;15.10;13.90;;;17.80;80.90;;;;;;4932188;29;20051;-74
2021/08/23 08:24:57;;;;;;;14.75;13.65;;;17.80;79.80;;;;;;4934911;29;20522;-73
2021/08/23 08:27:29;;;;;;;14.18;13.15;;;17.90;81.70;;;;;;4931020;29;20052;-73
2021/08/23 08:30:02;;;;;;;14.30;13.07;;;17.90;81.80;;;;;;4931728;29;20052;-73
2021/08/23 08:32:34;;;;;;;14.35;13.15;;;17.90;79.50;;;;;;4945488;29;20125;-74
2021/08/23 08:35:11;;;;;;;13.65;12.60;;;17.90;78.70;;;;;;4931608;29;20055;-74
2021/08/23 08:37:43;;;;;;;14.13;13.02;;;17.90;79.20;;;;;;4934490;29;20461;-74
2021/08/23 08:40:15;;;;;;;14.10;12.95;;;17.90;79.90;;;;;;4935178;29;20138;-73
2021/08/23 08:42:47;;;;;;;14.18;13.15;;;17.90;78.00;;;;;;4934925;29;20054;-73
2021/08/23 08:45:19;;;;;;;15.90;14.45;;;17.90;80.10;;;;;;4933967;29;20140;-73
2021/08/23 08:47:52;;;;;;;14.48;13.45;;;17.90;81.60;;;;;;4931076;29;20055;-73
2021/08/23 08:50:24;;;;;;;13.93;12.93;;;18.00;79.80;;;;;;4934701;29;20051;-73
2021/08/23 08:52:57;;;;;;;14.55;13.35;;;18.00;76.90;;;;;;4935659;29;20056;-73
2021/08/23 08:55:30;;;;;;;14.38;13.38;;;17.90;78.40;;;;;;4934368;29;20047;-73
2021/08/23 08:58:06;;;;;;;14.70;13.60;;;17.90;78.90;;;;;;4937780;29;20087;-73
2021/08/23 09:00:40;;;;;;;13.63;12.52;;;18.00;80.00;;;;;;4936722;29;20935;-73
2021/08/23 09:03:25;;;;;;;14.68;13.40;;;18.00;77.90;;;;;;4937156;29;20110;-73
2021/08/23 09:06:06;;;;;;;15.48;14.07;;;18.00;77.90;;;;;;4934448;29;20620;-73
2021/08/23 09:08:42;;;;;;;14.10;13.10;;;18.20;78.60;;;;;;4942604;29;20551;-73
2021/08/23 09:11:17;;;;;;;14.77;13.73;;;18.40;78.40;;;;;;4937336;29;20083;-74
2021/08/23 09:14:03;;;;;;;14.80;13.70;;;18.50;74.50;;;;;;4937371;29;20151;-74
2021/08/23 09:16:38;;;;;;;15.80;14.40;;;18.50;75.00;;;;;;4935353;29;20064;-74
2021/08/23 09:19:25;;;;;;;15.80;14.40;;;18.60;74.90;;;;;;4937120;29;20054;-74
2021/08/23 09:22:02;;;;;;;15.50;14.40;;;18.80;75.50;;;;;;4934279;29;20147;-75
2021/08/23 09:24:37;;;;;;;14.63;13.52;;;19.10;74.60;;;;;;4936331;29;20048;-74
2021/08/23 09:27:12;;;;;;;14.52;13.45;;;19.20;74.30;;;;;;4932945;29;20916;-74
2021/08/23 09:29:56;;;;;;;15.05;13.85;;;19.20;72.70;;;;;;4933063;29;20124;-74
2021/08/23 09:32:30;;;;;;;15.60;14.50;;;19.50;75.40;;;;;;4934296;29;20108;-74
2021/08/23 09:35:03;;;;;;;14.20;13.20;;;19.80;74.50;;;;;;4935534;29;20928;-74
2021/08/23 09:37:35;;;;;;;15.02;13.98;;;20.10;74.70;;;;;;4937037;29;20138;-73
2021/08/23 09:40:17;;;;;;;14.50;13.40;;;20.30;70.00;;;;;;4934924;29;20039;-74
2021/08/23 09:43:03;;;;;;;14.57;13.48;;;20.40;71.70;;;;;;4936209;29;20126;-75
2021/08/23 09:45:37;;;;;;;14.02;13.02;;;20.30;72.00;;;;;;4936613;29;20103;-74
2021/08/23 09:48:09;;;;;;;14.38;13.27;;;20.30;73.60;;;;;;4936277;29;20510;-74
2021/08/23 09:50:48;;;;;;;14.18;13.18;;;20.20;69.40;;;;;;4934402;29;20083;-75
2021/08/23 09:53:21;;;;;;;14.57;13.40;;;20.10;71.60;;;;;;4935132;29;20580;-75
2021/08/23 09:55:57;;;;;;;14.27;13.10;;;20.00;72.20;;;;;;4936309;29;20591;-74
2021/08/23 09:58:29;;;;;;;15.00;13.70;;;20.00;72.50;;;;;;4936810;29;20039;-74
2021/08/23 10:01:01;;;;;;;14.50;13.35;;;20.00;72.70;;;;;;4934601;29;20635;-73
2021/08/23 10:03:36;;;;;;;14.13;13.13;;;20.00;73.40;;;;;;4937398;29;20069;-74
2021/08/23 10:06:19;;;;;;;14.48;13.38;;;20.10;73.90;;;;;;4933058;29;20079;-74
2021/08/23 10:08:54;;;;;;;14.15;13.10;;;20.10;72.00;;;;;;4935970;29;20475;-75
2021/08/23 10:11:25;;;;;;;14.32;13.23;;;20.10;69.50;;;;;;4934964;29;20056;-74
2021/08/23 10:13:58;;;;;;;14.73;13.63;;;20.20;72.30;;;;;;4936240;29;20142;-74
2021/08/23 10:16:32;;;;;;;14.25;13.25;;;20.30;70.30;;;;;;4933349;29;20079;-74
2021/08/23 10:19:05;;;;;;;14.85;13.65;;;20.20;71.60;;;;;;4934229;29;20047;-74
2021/08/23 10:21:41;;;;;;;14.35;13.32;;;20.30;71.90;;;;;;4939428;29;20127;-75
2021/08/23 10:24:20;;;;;;;14.55;13.48;;;20.40;71.40;;;;;;4934086;29;20051;-73
2021/08/23 10:26:53;;;;;;;14.73;13.63;;;20.60;72.00;;;;;;4935423;29;20467;-75
2021/08/23 10:29:38;;;;;;;14.68;13.68;;;20.80;71.00;;;;;;4932464;29;20052;-74
2021/08/23 10:32:11;;;;;;;15.00;13.90;;;20.80;71.30;;;;;;4935145;29;20047;-74
2021/08/23 10:34:43;;;;;;;14.93;13.80;;;20.90;71.40;;;;;;4934665;29;20508;-74
2021/08/23 10:37:21;;;;;;;14.68;13.57;;;20.90;69.80;;;;;;4936597;29;20634;-75
2021/08/23 10:40:01;;;;;;;14.95;13.85;;;20.90;69.00;;;;;;4932471;29;20047;-74
2021/08/23 10:42:40;;;;;;;14.70;13.65;;;20.90;68.00;;;;;;4934103;29;20467;-74
2021/08/23 10:45:16;;;;;;;14.55;13.48;;;21.00;67.20;;;;;;4933119;29;20047;-75
2021/08/23 10:47:48;;;;;;;15.07;13.98;;;20.90;67.20;;;;;;4940532;29;20841;-74
2021/08/23 10:50:23;;;;;;;14.43;13.43;;;21.00;69.00;;;;;;4936187;29;20055;-74
2021/08/23 10:52:57;;;;;;;14.52;13.38;;;21.00;67.30;;;;;;4936907;29;20058;-73
2021/08/23 10:55:32;;;;;;;14.88;13.77;;;21.00;65.40;;;;;;4933864;29;20051;-73
2021/08/23 10:58:09;;;;;;;14.90;13.80;;;20.80;66.20;;;;;;4935474;29;20139;-73
2021/08/23 11:00:43;;;;;;;13.55;12.55;;;20.70;65.40;;;;;;4934261;29;20865;-74
2021/08/23 11:03:16;;;;;;;14.00;13.00;;;20.70;66.00;;;;;;4936049;29;20426;-73
2021/08/23 11:05:51;;;;;;;15.70;14.50;;;20.60;65.50;;;;;;4933826;29;20825;-72
2021/08/23 11:08:26;;;;;;;13.88;12.88;;;20.60;66.10;;;;;;4935491;29;20055;-73
2021/08/23 11:11:11;;;;;;;21.80;19.90;;;20.60;65.10;;;;;;4931811;29;20139;-74
2021/08/23 11:13:43;;;;;;;14.82;13.68;;;20.60;66.60;;;;;;4932523;29;20524;-74
2021/08/23 11:16:15;;;;;;;28.35;25.58;;;20.70;67.00;;;;;;4939675;29;20138;-74
2021/08/23 11:18:47;;;;;;;18.13;16.52;;;20.70;65.30;;;;;;4935125;29;20054;-73
2021/08/23 11:21:24;;;;;;;14.85;13.75;;;20.70;66.00;;;;;;4932500;29;20506;-74
2021/08/23 11:24:06;;;;;;;14.05;12.95;;;20.70;65.80;;;;;;4934656;29;20047;-74
2021/08/23 11:26:38;;;;;;;13.98;12.98;;;20.60;64.40;;;;;;4933315;29;20097;-74
2021/08/23 11:29:10;;;;;;;14.20;13.20;;;20.60;66.50;;;;;;4934755;29;20459;-74
2021/08/23 11:31:42;;;;;;;13.82;12.82;;;20.60;66.30;;;;;;4932131;29;20051;-74
2021/08/23 11:34:15;;;;;;;14.20;13.10;;;20.50;67.80;;;;;;4930553;29;20170;-73
2021/08/23 11:36:47;;;;;;;15.27;14.18;;;20.50;67.20;;;;;;4929978;29;20786;-74
2021/08/23 11:39:18;;;;;;;14.95;13.85;;;20.50;68.20;;;;;;4934266;29;20115;-75
2021/08/23 11:42:01;;;;;;;15.40;14.30;;;20.90;69.10;;;;;;4931334;29;20064;-74
2021/08/23 11:44:37;;;;;;;15.07;13.98;;;21.30;66.40;;;;;;4931802;29;20052;-75
2021/08/23 11:47:09;;;;;;;15.43;14.32;;;21.60;67.00;;;;;;4930277;29;20159;-75
2021/08/23 11:49:41;;;;;;;15.27;14.18;;;21.90;65.60;;;;;;4930853;29;20047;-74
2021/08/23 11:52:14;;;;;;;15.20;14.10;;;22.10;61.90;;;;;;4932859;29;20043;-75
2021/08/23 11:54:48;;;;;;;15.25;14.15;;;22.30;62.90;;;;;;4933552;29;20537;-75
2021/08/23 11:57:25;;;;;;;15.50;14.40;;;22.40;63.60;;;;;;4932504;29;20051;-75
2021/08/23 12:00:03;;;;;;;15.35;14.25;;;22.50;62.50;;;;;;4933719;29;20051;-75
2021/08/23 12:02:38;;;;;;;13.90;12.90;;;22.50;63.70;;;;;;4939911;29;20071;-75
2021/08/23 12:05:12;;;;;;;15.25;14.13;;;22.50;60.30;;;;;;4931918;29;20139;-74
2021/08/23 12:07:49;;;;;;;14.73;13.65;;;22.30;61.00;;;;;;4933899;29;20164;-75
2021/08/23 12:10:25;;;;;;;15.10;14.00;;;22.10;59.00;;;;;;4932214;29;20071;-73
2021/08/23 12:13:11;;;;;;;14.57;13.57;;;21.90;62.80;;;;;;4932464;29;20527;-74
2021/08/23 12:16:04;;;;;;;14.45;13.40;;;21.70;62.40;;;;;;4933162;29;20048;-74
2021/08/23 12:18:39;;;;;;;14.20;13.18;;;21.60;64.20;;;;;;4931531;29;20054;-75
2021/08/23 12:21:31;;;;;;;14.10;13.00;;;21.50;64.50;;;;;;4934639;29;20585;-75
2021/08/23 12:24:16;;;;;;;14.07;12.90;;;21.30;64.70;;;;;;4935214;29;20053;-74
2021/08/23 12:26:58;;;;;;;14.40;13.40;;;21.20;65.20;;;;;;4934843;29;20054;-74
2021/08/23 12:29:36;;;;;;;13.40;12.40;;;21.20;63.90;;;;;;4935814;29;20482;-74
2021/08/23 12:32:13;;;;;;;14.00;12.95;;;21.10;65.50;;;;;;4934386;29;20649;-74
2021/08/23 12:34:49;;;;;;;14.25;13.15;;;21.20;66.40;;;;;;4936735;29;20132;-74
2021/08/23 12:37:21;;;;;;;14.20;13.20;;;21.20;67.50;;;;;;4934887;29;20052;-73
2021/08/23 12:39:53;;;;;;;13.88;12.77;;;21.20;65.20;;;;;;4937826;29;20047;-74
2021/08/23 12:42:28;;;;;;;14.50;13.43;;;21.30;67.60;;;;;;4935271;29;20147;-74
2021/08/23 12:45:00;;;;;;;14.30;13.23;;;21.60;66.50;;;;;;4938312;29;20163;-73
2021/08/23 12:47:32;;;;;;;13.85;12.85;;;21.50;62.90;;;;;;4936916;29;20063;-73
2021/08/23 12:50:04;;;;;;;13.68;12.57;;;21.30;63.50;;;;;;4935177;29;20058;-74
2021/08/23 12:52:36;;;;;;;14.10;13.00;;;21.10;63.30;;;;;;4935936;29;20144;-74
2021/08/23 12:55:08;;;;;;;13.57;12.57;;;21.10;62.70;;;;;;4934257;29;20185;-74
2021/08/23 12:57:40;;;;;;;13.75;12.70;;;21.10;65.20;;;;;;4936677;29;20146;-72
2021/08/23 13:00:13;;;;;;;13.77;12.77;;;21.00;63.00;;;;;;4936164;29;20051;-73